Time;durP1;ratioP1;P1;durP2;ratioP2;P2;SDS_P1;SDS_P2;PMS_P1;PMS_P2;Temp;Humidity;BMP_temperature;BMP_pressure;BME280_temperature;BME280_humidity;BME280_pressure;Samples;Min_cycle;Max_cycle;Signal;HPM_P1;HPM_P2
2023/05/07 00:00:09;;;;;;;1.10;1.10;;;;;;;13.55;84.90;97218.06;5003985;28;20097;-67
2023/05/07 00:02:37;;;;;;;1.10;1.10;;;;;;;13.55;85.68;97240.31;5023414;28;20448;-67
2023/05/07 00:05:05;;;;;;;1.00;1.00;;;;;;;13.45;85.39;97235.44;5024723;28;20499;-67
2023/05/07 00:07:31;;;;;;;0.98;0.98;;;;;;;13.24;85.46;97218.59;5024835;28;20124;-67
2023/05/07 00:09:58;;;;;;;1.10;1.10;;;;;;;12.91;85.35;97174.13;5024828;28;20128;-67
2023/05/07 00:12:25;;;;;;;1.20;1.20;;;;;;;12.88;85.91;97191.53;5023929;28;20084;-67
2023/05/07 00:14:51;;;;;;;1.00;1.00;;;;;;;13.13;86.82;97253.84;5022968;28;20436;-67
2023/05/07 00:17:18;;;;;;;1.02;1.02;;;;;;;13.09;87.70;97247.41;5024571;28;20081;-68
2023/05/07 00:19:45;;;;;;;1.08;1.08;;;;;;;13.14;87.99;97233.19;5024305;28;20174;-67
2023/05/07 00:22:11;;;;;;;1.08;1.08;;;;;;;13.04;89.46;97233.84;5024412;28;20115;-68
2023/05/07 00:24:38;;;;;;;1.00;1.00;;;;;;;12.89;89.87;97215.41;5024057;28;20531;-67
2023/05/07 00:27:05;;;;;;;1.10;1.10;;;;;;;12.63;89.22;97184.91;5023045;28;20083;-67
2023/05/07 00:29:31;;;;;;;1.08;1.08;;;;;;;13.02;88.93;97236.25;5022706;28;20049;-67
2023/05/07 00:31:58;;;;;;;1.10;1.10;;;;;;;12.90;88.29;97228.13;5024765;28;20487;-67
2023/05/07 00:34:25;;;;;;;1.00;1.00;;;;;;;12.95;88.31;97238.91;5024163;28;20061;-67
2023/05/07 00:36:51;;;;;;;1.10;1.10;;;;;;;12.32;88.49;97168.69;5024641;28;20495;-66
2023/05/07 00:39:18;;;;;;;1.00;1.00;;;;;;;12.46;89.16;97207.75;5022592;28;20049;-67
2023/05/07 00:41:45;;;;;;;1.00;1.00;;;;;;;12.46;89.75;97235.53;5024535;28;20053;-68
2023/05/07 00:44:12;;;;;;;1.00;1.00;;;;;;;12.00;90.47;97186.91;5023717;28;20516;-67
2023/05/07 00:46:39;;;;;;;0.90;0.90;;;;;;;11.95;91.10;97165.84;5024405;28;20409;-67
2023/05/07 00:49:06;;;;;;;1.00;1.00;;;;;;;12.02;90.69;97170.69;5023668;28;20084;-67
2023/05/07 00:51:33;;;;;;;0.90;0.90;;;;;;;12.38;91.25;97239.41;5024127;28;20081;-67
2023/05/07 00:54:01;;;;;;;1.00;1.00;;;;;;;12.37;91.79;97235.03;5023759;28;20049;-67
2023/05/07 00:56:28;;;;;;;0.85;0.85;;;;;;;12.38;91.51;97238.63;5024183;28;20049;-67
2023/05/07 00:58:55;;;;;;;1.10;1.10;;;;;;;11.84;90.28;97144.66;5023355;28;20501;-65
2023/05/07 01:01:22;;;;;;;0.90;0.90;;;;;;;12.21;91.09;97239.97;5015155;28;20101;-68
2023/05/07 01:03:49;;;;;;;1.00;1.00;;;;;;;11.70;90.00;97155.56;5003371;28;20472;-67
2023/05/07 01:06:17;;;;;;;1.00;1.00;;;;;;;12.25;90.01;97243.59;5003938;28;20502;-67
2023/05/07 01:08:45;;;;;;;0.90;0.90;;;;;;;11.25;89.87;97097.41;5003999;28;20061;-66
2023/05/07 01:11:12;;;;;;;0.90;0.90;;;;;;;12.15;89.91;97252.59;5004407;28;20058;-67
2023/05/07 01:13:40;;;;;;;1.00;1.00;;;;;;;12.02;91.22;97253.97;5003843;28;20054;-65
2023/05/07 01:16:09;;;;;;;0.90;0.90;;;;;;;12.10;91.03;97250.13;5004489;28;20053;-67
2023/05/07 01:18:35;;;;;;;0.90;0.90;;;;;;;12.09;91.74;97237.44;5003875;28;20104;-68
2023/05/07 01:21:04;;;;;;;1.00;1.00;;;;;;;12.09;92.81;97242.97;5004005;28;20058;-68
2023/05/07 01:23:32;;;;;;;0.93;0.93;;;;;;;12.24;92.75;97233.66;5003990;28;20521;-67
2023/05/07 01:25:59;;;;;;;0.80;0.80;;;;;;;12.30;91.95;97237.69;5007916;28;20329;-68
2023/05/07 01:28:26;;;;;;;1.00;1.00;;;;;;;11.69;92.09;97151.19;5007908;28;20053;-67
2023/05/07 01:30:56;;;;;;;1.00;1.00;;;;;;;12.06;93.28;97232.63;5008048;28;20136;-67
2023/05/07 01:33:24;;;;;;;0.90;0.90;;;;;;;11.85;92.69;97210.09;5006365;28;20050;-68
2023/05/07 01:35:53;;;;;;;0.90;0.90;;;;;;;11.82;92.27;97233.06;5008094;28;20053;-67
2023/05/07 01:38:22;;;;;;;0.95;0.95;;;;;;;11.47;92.28;97165.91;5006458;28;20115;-67
2023/05/07 01:40:50;;;;;;;0.80;0.80;;;;;;;11.72;90.94;97200.38;5007389;28;20049;-67
2023/05/07 01:43:17;;;;;;;0.90;0.90;;;;;;;11.79;90.58;97231.03;5007888;28;20057;-68
2023/05/07 01:45:45;;;;;;;0.90;0.90;;;;;;;11.45;90.57;97182.91;5007441;28;20058;-67
2023/05/07 01:48:13;;;;;;;1.00;1.00;;;;;;;11.81;91.37;97225.88;5007729;28;20432;-68
2023/05/07 01:50:41;;;;;;;0.90;0.90;;;;;;;11.50;91.88;97179.00;5006991;28;20133;-68
2023/05/07 01:53:08;;;;;;;0.90;0.90;;;;;;;11.78;92.81;97232.19;5007366;28;20058;-68
2023/05/07 01:55:36;;;;;;;0.90;0.90;;;;;;;11.72;92.61;97228.94;5006930;28;20096;-68
2023/05/07 01:58:04;;;;;;;0.88;0.88;;;;;;;11.14;93.32;97141.63;5007389;28;20421;-67
2023/05/07 02:00:31;;;;;;;0.90;0.90;;;;;;;11.75;93.74;97227.38;5006080;28;20152;-67
2023/05/07 02:02:58;;;;;;;0.90;0.90;;;;;;;11.41;93.30;97156.28;5026916;28;20049;-68
2023/05/07 02:05:25;;;;;;;0.88;0.88;;;;;;;11.86;92.81;97220.03;5026725;28;20132;-68
2023/05/07 02:07:52;;;;;;;1.00;1.00;;;;;;;11.77;92.62;97219.50;5025575;28;20524;-67
2023/05/07 02:10:18;;;;;;;0.90;0.90;;;;;;;11.71;93.69;97207.13;5026445;28;20049;-67
2023/05/07 02:12:45;;;;;;;0.93;0.93;;;;;;;11.67;94.02;97209.03;5025617;28;20512;-67
2023/05/07 02:15:11;;;;;;;0.90;0.90;;;;;;;11.63;93.97;97210.97;5026935;28;20539;-67
2023/05/07 02:17:58;;;;;;;0.90;0.90;;;;;;;11.55;93.41;97179.50;5027543;28;20073;-67
2023/05/07 02:20:26;;;;;;;0.90;0.90;;;;;;;11.60;92.86;97208.91;5026684;28;20422;-68
2023/05/07 02:22:52;;;;;;;0.88;0.88;;;;;;;11.36;91.81;97134.41;5026821;28;20136;-66
2023/05/07 02:25:19;;;;;;;0.88;0.88;;;;;;;11.64;91.42;97195.91;5024733;28;20049;-68
2023/05/07 02:27:46;;;;;;;0.90;0.90;;;;;;;11.55;91.08;97195.34;5026494;28;20056;-67
2023/05/07 02:30:13;;;;;;;0.90;0.90;;;;;;;11.52;91.55;97196.88;5026308;28;20061;-68
2023/05/07 02:32:40;;;;;;;0.90;0.90;;;;;;;11.59;91.93;97190.63;5024834;28;20061;-67
2023/05/07 02:35:07;;;;;;;0.80;0.80;;;;;;;11.56;91.86;97202.47;5025868;28;20049;-67
2023/05/07 02:37:34;;;;;;;0.80;0.80;;;;;;;11.49;91.57;97197.63;5025619;28;20104;-68
2023/05/07 02:40:04;;;;;;;1.00;1.00;;;;;;;11.55;91.75;97189.78;5025660;28;20048;-68
2023/05/07 02:42:31;;;;;;;0.90;0.90;;;;;;;11.21;92.06;97146.44;5024110;28;20049;-66
2023/05/07 02:44:57;;;;;;;1.00;1.00;;;;;;;11.52;92.37;97190.53;5024848;28;20442;-67
2023/05/07 02:47:26;;;;;;;0.90;0.90;;;;;;;11.51;92.16;97188.94;5024837;28;20111;-66
2023/05/07 02:49:54;;;;;;;0.80;0.80;;;;;;;10.88;91.96;97110.25;5024782;28;20124;-68
2023/05/07 02:52:21;;;;;;;0.90;0.90;;;;;;;11.22;93.20;97182.16;5025356;28;20156;-66
2023/05/07 02:54:48;;;;;;;0.80;0.80;;;;;;;11.09;94.14;97177.16;5024375;28;20144;-66
2023/05/07 02:57:15;;;;;;;0.80;0.80;;;;;;;10.95;93.53;97132.56;5024839;28;20324;-66
2023/05/07 02:59:42;;;;;;;0.80;0.80;;;;;;;11.20;94.12;97178.13;5024548;28;20058;-67
2023/05/07 03:02:10;;;;;;;0.90;0.90;;;;;;;11.07;95.09;97173.94;5007640;28;20949;-68
2023/05/07 03:04:36;;;;;;;0.90;0.90;;;;;;;11.00;95.84;97173.84;4986558;28;20132;-67
2023/05/07 03:07:03;;;;;;;0.80;0.80;;;;;;;10.54;95.29;97146.09;4986269;28;20516;-67
2023/05/07 03:09:30;;;;;;;0.80;0.80;;;;;;;10.50;95.21;97067.69;4985007;28;20537;-65
2023/05/07 03:11:57;;;;;;;0.88;0.88;;;;;;;10.98;93.64;97117.97;4984935;28;20054;-66
2023/05/07 03:14:23;;;;;;;0.80;0.80;;;;;;;11.26;93.25;97176.63;4986454;28;20433;-67
2023/05/07 03:16:50;;;;;;;0.82;0.82;;;;;;;11.18;93.30;97163.81;4986556;28;20042;-66
2023/05/07 03:19:17;;;;;;;0.90;0.90;;;;;;;10.57;93.57;97061.47;4984897;28;20140;-67
2023/05/07 03:21:43;;;;;;;0.85;0.85;;;;;;;11.03;95.39;97200.81;4986626;28;20140;-67
2023/05/07 03:24:10;;;;;;;0.80;0.80;;;;;;;11.14;95.40;97190.72;4986203;28;20066;-67
2023/05/07 03:26:36;;;;;;;0.90;0.90;;;;;;;11.23;94.78;97183.75;4984743;28;20158;-67
2023/05/07 03:29:03;;;;;;;0.90;0.90;;;;;;;11.27;94.75;97184.59;4984555;28;20435;-67
2023/05/07 03:31:30;;;;;;;0.90;0.90;;;;;;;11.02;94.58;97138.25;4986220;28;20102;-67
2023/05/07 03:33:57;;;;;;;0.88;0.88;;;;;;;11.46;94.40;97173.41;4985845;28;20054;-66
2023/05/07 03:36:26;;;;;;;0.90;0.90;;;;;;;10.94;93.54;97081.88;4985972;28;20054;-67
2023/05/07 03:38:53;;;;;;;0.90;0.90;;;;;;;10.65;91.90;97041.81;4986271;28;20050;-67
2023/05/07 03:41:20;;;;;;;0.90;0.90;;;;;;;11.47;92.37;97161.16;4984441;28;20058;-65
2023/05/07 03:43:47;;;;;;;0.93;0.93;;;;;;;11.67;91.80;97181.28;4985546;28;20066;-66
2023/05/07 03:46:13;;;;;;;1.00;1.00;;;;;;;11.73;90.60;97157.59;4984207;28;20129;-67
2023/05/07 03:48:40;;;;;;;0.90;0.90;;;;;;;11.83;90.24;97173.59;4985969;28;20085;-67
2023/05/07 03:51:07;;;;;;;0.90;0.90;;;;;;;11.90;90.31;97184.81;4984096;28;20060;-67
2023/05/07 03:53:33;;;;;;;0.90;0.90;;;;;;;11.78;89.29;97133.09;4985221;28;20060;-67
2023/05/07 03:56:00;;;;;;;0.90;0.90;;;;;;;11.69;89.02;97124.25;4985585;28;20137;-67
2023/05/07 03:58:26;;;;;;;0.93;0.93;;;;;;;12.01;89.26;97192.09;4984209;28;20140;-68
2023/05/07 04:00:53;;;;;;;1.00;1.00;;;;;;;12.08;89.13;97197.75;4990888;28;20108;-67
2023/05/07 04:03:20;;;;;;;0.90;0.90;;;;;;;11.40;87.88;97085.34;5023242;28;20064;-68
2023/05/07 04:05:46;;;;;;;1.00;1.00;;;;;;;12.15;88.37;97210.94;5023327;28;20057;-67
2023/05/07 04:08:13;;;;;;;1.00;1.00;;;;;;;12.23;88.29;97192.38;5024511;28;20049;-67
2023/05/07 04:10:40;;;;;;;1.00;1.00;;;;;;;12.20;86.48;97155.06;5024204;28;20427;-67
2023/05/07 04:13:06;;;;;;;1.00;1.00;;;;;;;12.56;86.86;97212.66;5024613;28;20050;-67
2023/05/07 04:15:33;;;;;;;0.90;0.90;;;;;;;12.54;85.71;97198.31;5024505;28;20053;-67
2023/05/07 04:18:15;;;;;;;0.90;0.90;;;;;;;12.78;85.74;97217.28;3577546;28;10003363;-68
2023/05/07 04:20:42;;;;;;;1.10;1.10;;;;;;;12.93;85.04;97210.66;4272951;28;10001240;-68
2023/05/07 04:23:08;;;;;;;1.10;1.10;;;;;;;13.06;85.03;97214.81;5023122;28;20132;-67
2023/05/07 04:25:35;;;;;;;1.10;1.10;;;;;;;13.22;84.56;97218.16;5023971;28;20115;-68
2023/05/07 04:28:02;;;;;;;1.05;1.05;;;;;;;13.32;84.82;97217.47;5024789;28;20052;-66
2023/05/07 04:30:28;;;;;;;1.00;1.00;;;;;;;13.44;84.80;97219.94;5024276;28;20171;-66
2023/05/07 04:32:56;;;;;;;1.00;1.00;;;;;;;13.04;84.25;97156.00;5024000;28;20057;-66
2023/05/07 04:35:22;;;;;;;1.00;1.00;;;;;;;13.60;84.44;97217.69;5022726;28;20049;-68
2023/05/07 04:37:49;;;;;;;1.02;1.02;;;;;;;13.74;83.46;97227.34;5023557;28;20092;-67
2023/05/07 04:40:16;;;;;;;1.00;1.00;;;;;;;13.83;82.70;97225.03;5024203;28;20479;-67
2023/05/07 04:42:42;;;;;;;1.23;1.23;;;;;;;13.89;82.18;97229.03;5024117;28;20061;-68
2023/05/07 04:45:10;;;;;;;1.02;1.02;;;;;;;13.53;82.52;97173.09;5024341;28;20060;-66
2023/05/07 04:47:36;;;;;;;1.00;1.00;;;;;;;13.95;82.31;97216.34;5022573;28;20533;-67
2023/05/07 04:50:04;;;;;;;1.20;1.20;;;;;;;13.78;83.36;97194.75;5024141;28;20878;-67
2023/05/07 04:52:31;;;;;;;1.20;1.20;;;;;;;14.08;83.23;97231.56;5024424;28;20081;-66
2023/05/07 04:54:59;;;;;;;1.10;1.10;;;;;;;14.04;83.41;97231.53;5023955;28;20103;-67
2023/05/07 04:57:26;;;;;;;1.27;1.27;;;;;;;14.13;83.59;97225.63;5022889;28;20093;-68
2023/05/07 04:59:54;;;;;;;1.23;1.23;;;;;;;14.06;83.41;97217.22;5027900;28;20543;-66
2023/05/07 05:02:20;;;;;;;1.20;1.20;;;;;;;14.33;83.72;97229.75;5011406;28;20061;-68
2023/05/07 05:04:47;;;;;;;1.20;1.20;;;;;;;14.44;83.31;97220.25;4991165;28;20456;-68
2023/05/07 05:07:14;;;;;;;1.20;1.20;;;;;;;14.56;82.54;97224.66;4991023;28;20136;-67
2023/05/07 05:09:40;;;;;;;1.20;1.20;;;;;;;14.59;83.65;97218.34;4991480;28;20093;-66
2023/05/07 05:12:07;;;;;;;1.25;1.25;;;;;;;14.54;83.86;97204.75;4990824;28;20141;-66
2023/05/07 05:14:33;;;;;;;1.30;1.30;;;;;;;14.82;82.83;97227.16;4990904;28;20050;-65
2023/05/07 05:17:00;;;;;;;1.30;1.30;;;;;;;15.09;81.81;97225.66;4991264;28;20084;-68
2023/05/07 05:19:27;;;;;;;1.30;1.30;;;;;;;14.76;82.01;97181.34;4989901;28;20440;-69
2023/05/07 05:21:54;;;;;;;1.27;1.27;;;;;;;15.10;82.08;97222.47;4989188;28;20050;-66
2023/05/07 05:24:21;;;;;;;1.20;1.20;;;;;;;15.08;81.45;97196.16;4990983;28;20054;-69
2023/05/07 05:26:47;;;;;;;1.23;1.23;;;;;;;15.23;81.24;97197.78;4989277;28;20057;-65
2023/05/07 05:29:14;;;;;;;1.25;1.25;;;;;;;15.60;80.80;97220.56;4991259;28;20157;-67
2023/05/07 05:31:41;;;;;;;1.40;1.40;;;;;;;15.70;79.88;97210.56;4991018;28;20081;-67
2023/05/07 05:34:08;;;;;;;1.40;1.40;;;;;;;15.62;80.29;97226.53;4990651;28;20054;-67
2023/05/07 05:36:35;;;;;;;1.45;1.45;;;;;;;15.91;79.63;97225.34;4991246;28;20088;-68
2023/05/07 05:39:01;;;;;;;1.40;1.40;;;;;;;15.98;78.37;97208.56;4990815;28;20054;-67
2023/05/07 05:41:28;;;;;;;1.38;1.38;;;;;;;16.27;77.54;97224.09;4991298;28;20050;-65
2023/05/07 05:43:54;;;;;;;1.35;1.35;;;;;;;16.09;78.17;97216.94;4990519;28;20050;-67
2023/05/07 05:46:21;;;;;;;1.40;1.40;;;;;;;16.21;77.79;97236.88;4999492;28;20046;-66
2023/05/07 05:48:48;;;;;;;1.77;1.77;;;;;;;16.41;77.77;97240.81;5009559;28;20088;-66
2023/05/07 05:51:16;;;;;;;1.55;1.55;;;;;;;16.49;76.71;97196.88;5010495;28;20062;-67
2023/05/07 05:53:44;;;;;;;1.45;1.45;;;;;;;17.00;75.66;97241.03;5010111;28;20061;-68
2023/05/07 05:56:10;;;;;;;1.75;1.75;;;;;;;16.59;74.28;97135.31;5009071;28;20495;-67
2023/05/07 05:58:37;;;;;;;1.50;1.50;;;;;;;16.98;74.99;97230.25;5009616;28;20433;-67
2023/05/07 06:01:05;;;;;;;1.80;1.80;;;;;;;17.27;75.51;97226.09;5013800;28;20042;-67
2023/05/07 06:03:32;;;;;;;1.83;1.83;;;;;;;17.50;74.77;97233.94;5028159;28;20508;-68
2023/05/07 06:05:59;;;;;;;1.67;1.67;;;;;;;17.50;74.78;97211.53;5030338;28;20042;-70
2023/05/07 06:08:30;;;;;;;1.80;1.80;;;;;;;17.62;74.15;97214.66;5029811;28;20122;-69
2023/05/07 06:10:56;;;;;;;1.80;1.80;;;;;;;17.88;73.29;97227.25;5027062;28;20492;-69
2023/05/07 06:13:23;;;;;;;1.80;1.80;;;;;;;18.06;73.10;97227.91;5026456;28;20061;-72
2023/05/07 06:15:50;;;;;;;1.70;1.70;;;;;;;17.93;72.08;97174.34;5026956;28;20115;-70
2023/05/07 06:18:16;;;;;;;1.92;1.92;;;;;;;18.31;71.87;97236.06;5025187;28;20077;-69
2023/05/07 06:20:43;;;;;;;1.70;1.70;;;;;;;17.95;73.48;97238.41;5026733;28;20085;-70
2023/05/07 06:23:10;;;;;;;1.65;1.65;;;;;;;17.92;72.41;97188.78;5026359;28;20136;-69
2023/05/07 06:25:37;;;;;;;1.75;1.75;;;;;;;18.52;71.05;97239.47;5026997;28;20061;-70
2023/05/07 06:28:04;;;;;;;1.90;1.90;;;;;;;18.26;69.88;97164.38;5024463;28;20144;-73
2023/05/07 06:30:30;;;;;;;1.95;1.95;;;;;;;18.86;68.29;97237.47;5025219;28;20053;-68
2023/05/07 06:32:57;;;;;;;1.95;1.95;;;;;;;18.54;66.18;97172.50;5026132;28;20052;-69
2023/05/07 06:35:23;;;;;;;2.00;2.00;;;;;;;19.01;66.11;97227.66;5025893;28;20080;-70
2023/05/07 06:37:50;;;;;;;1.90;1.90;;;;;;;19.21;66.73;97234.19;5026611;28;20123;-70
2023/05/07 06:40:17;;;;;;;1.85;1.85;;;;;;;19.47;64.94;97227.81;5024973;28;20509;-70
2023/05/07 06:42:43;;;;;;;2.10;2.10;;;;;;;19.81;61.56;97224.09;5026220;28;20130;-67
2023/05/07 06:45:10;;;;;;;2.20;2.20;;;;;;;20.00;56.31;97214.94;5025809;28;20107;-69
2023/05/07 06:47:37;;;;;;;2.25;2.25;;;;;;;20.16;54.83;97215.06;5024361;28;20060;-69
2023/05/07 06:50:04;;;;;;;2.00;2.00;;;;;;;19.87;53.46;97219.59;5025120;28;20127;-70
2023/05/07 06:52:31;;;;;;;2.00;2.00;;;;;;;20.20;53.90;97213.00;5024859;28;20354;-70
2023/05/07 06:54:57;;;;;;;2.10;2.10;;;;;;;20.37;53.21;97223.94;5024997;28;20049;-69
2023/05/07 06:57:24;;;;;;;2.05;2.05;;;;;;;20.17;50.94;97168.88;5023703;28;20052;-70
2023/05/07 06:59:51;;;;;;;2.08;2.08;;;;;;;20.49;51.56;97214.06;5023713;28;20060;-69
2023/05/07 07:02:18;;;;;;;2.00;2.00;;;;;;;20.66;50.88;97224.22;5024682;28;20053;-68
2023/05/07 07:04:44;;;;;;;2.00;2.00;;;;;;;20.60;49.56;97175.25;5025757;28;20234;-71
2023/05/07 07:07:11;;;;;;;2.00;2.00;;;;;;;20.97;47.29;97205.88;5025062;28;20060;-70
2023/05/07 07:09:38;;;;;;;2.30;2.30;;;;;;;20.37;42.29;97161.25;5025815;28;20087;-69
2023/05/07 07:12:05;;;;;;;2.00;2.00;;;;;;;20.31;44.36;97208.00;5025750;28;20050;-69
2023/05/07 07:14:32;;;;;;;2.20;2.20;;;;;;;20.07;45.12;97209.19;5025073;28;20084;-67
2023/05/07 07:16:58;;;;;;;2.10;2.10;;;;;;;20.22;43.02;97173.97;5025681;28;20049;-69
2023/05/07 07:19:26;;;;;;;2.13;2.13;;;;;;;20.63;42.93;97208.94;5024353;28;20057;-69
2023/05/07 07:21:53;;;;;;;2.10;2.10;;;;;;;20.22;43.53;97131.78;5024350;28;20057;-69
2023/05/07 07:24:21;;;;;;;2.20;2.20;;;;;;;19.91;41.59;97144.38;5023783;28;20053;-69
2023/05/07 07:26:48;;;;;;;1.95;1.95;;;;;;;19.95;41.56;97223.88;5022238;28;20053;-69
2023/05/07 07:29:15;;;;;;;1.80;1.80;;;;;;;20.05;40.57;97211.63;5023344;28;20053;-67
2023/05/07 07:31:41;;;;;;;2.00;2.00;;;;;;;20.45;40.50;97214.16;5022416;28;20386;-70
2023/05/07 07:34:08;;;;;;;2.00;2.00;;;;;;;20.62;40.50;97217.84;5024031;28;20057;-69
2023/05/07 07:36:35;;;;;;;2.03;2.03;;;;;;;20.83;40.46;97218.19;5022805;28;20417;-68
2023/05/07 07:39:12;;;;;;;2.03;2.03;;;;;;;20.57;39.22;97196.63;5024206;28;20587;-70
2023/05/07 07:41:39;;;;;;;1.92;1.92;;;;;;;20.98;39.21;97218.72;5022809;28;20072;-70
2023/05/07 07:44:07;;;;;;;2.30;2.30;;;;;;;21.02;37.98;97220.25;5025058;28;20080;-71
2023/05/07 07:46:34;;;;;;;2.20;2.20;;;;;;;21.23;38.48;97218.97;5025783;28;20441;-69
2023/05/07 07:49:01;;;;;;;2.10;2.10;;;;;;;21.48;38.89;97218.44;5023596;28;20045;-69
2023/05/07 07:51:28;;;;;;;2.53;2.42;;;;;;;21.60;38.23;97210.09;5025686;28;20065;-69
2023/05/07 07:53:55;;;;;;;2.35;2.28;;;;;;;21.72;38.49;97217.84;5023288;28;20163;-69
2023/05/07 07:56:22;;;;;;;2.33;2.30;;;;;;;21.65;37.53;97218.03;5024927;28;20505;-70
2023/05/07 07:58:48;;;;;;;2.20;2.20;;;;;;;20.93;37.53;97137.53;5022582;28;20064;-69
2023/05/07 08:01:16;;;;;;;2.30;2.30;;;;;;;21.35;37.32;97218.34;5024741;28;20057;-67
2023/05/07 08:03:43;;;;;;;2.40;2.30;;;;;;;21.70;37.15;97209.06;5023187;28;20053;-72
2023/05/07 08:06:10;;;;;;;2.28;2.28;;;;;;;22.00;37.59;97213.59;5024912;28;20053;-71
2023/05/07 08:08:37;;;;;;;2.10;2.10;;;;;;;21.67;37.99;97218.38;5024392;28;20053;-69
2023/05/07 08:11:04;;;;;;;2.55;2.45;;;;;;;21.96;37.20;97210.84;5023295;28;20613;-70
2023/05/07 08:13:31;;;;;;;2.67;2.58;;;;;;;22.16;37.18;97208.72;5024632;28;20539;-70
2023/05/07 08:15:58;;;;;;;2.20;2.20;;;;;;;22.23;36.24;97208.53;5024540;28;20501;-70
2023/05/07 08:18:25;;;;;;;2.33;2.30;;;;;;;21.86;37.33;97206.25;5023586;28;20060;-68
2023/05/07 08:20:52;;;;;;;2.17;2.17;;;;;;;22.27;36.39;97209.22;5024533;28;20736;-70
2023/05/07 08:23:19;;;;;;;2.80;2.70;;;;;;;22.36;36.05;97195.28;5023610;28;20096;-70
2023/05/07 08:25:46;;;;;;;2.88;2.78;;;;;;;22.41;35.83;97174.19;5024582;28;20923;-70
2023/05/07 08:28:12;;;;;;;2.60;2.50;;;;;;;22.60;36.07;97203.53;5024178;28;20665;-70
2023/05/07 08:30:39;;;;;;;2.70;2.60;;;;;;;22.76;36.69;97206.31;5039099;28;20057;-70
2023/05/07 08:33:06;;;;;;;2.78;2.67;;;;;;;22.98;36.53;97201.66;5023994;28;20061;-68
2023/05/07 08:35:33;;;;;;;2.55;2.45;;;;;;;23.09;37.25;97208.59;5023280;28;20497;-67
2023/05/07 08:38:01;;;;;;;2.70;2.60;;;;;;;23.15;36.51;97203.16;5023076;28;20049;-67
2023/05/07 08:40:28;;;;;;;2.67;2.58;;;;;;;22.88;36.12;97149.06;5022257;28;20049;-67
2023/05/07 08:42:56;;;;;;;2.70;2.60;;;;;;;23.42;35.76;97204.38;5024370;28;20130;-69
2023/05/07 08:45:24;;;;;;;2.80;2.70;;;;;;;23.59;35.45;97196.56;5022747;28;20076;-68
2023/05/07 08:47:58;;;;;;;3.10;3.00;;;;;;;23.77;35.35;97188.31;5024114;28;20057;-67
2023/05/07 08:50:25;;;;;;;3.08;2.97;;;;;;;23.98;35.38;97196.09;5022484;28;20053;-69
2023/05/07 08:52:52;;;;;;;3.00;2.90;;;;;;;23.98;34.89;97193.28;5024210;28;20056;-67
2023/05/07 08:55:22;;;;;;;2.72;2.63;;;;;;;23.99;35.21;97192.03;5038071;28;20049;-68
2023/05/07 08:57:50;;;;;;;2.95;2.85;;;;;;;23.88;34.70;97185.91;5023997;28;20527;-67
2023/05/07 09:00:17;;;;;;;2.80;2.70;;;;;;;23.89;33.89;97164.84;5023438;28;20053;-70
2023/05/07 09:02:43;;;;;;;2.95;2.85;;;;;;;24.24;34.34;97189.16;5024219;28;20049;-68
2023/05/07 09:05:10;;;;;;;3.38;3.28;;;;;;;24.24;33.65;97169.34;5023616;28;20563;-67
2023/05/07 09:07:40;;;;;;;2.85;2.75;;;;;;;23.70;33.50;97106.47;5023584;28;20049;-68
2023/05/07 09:10:07;;;;;;;2.80;2.70;;;;;;;23.87;34.17;97110.75;5022268;28;20057;-67
2023/05/07 09:12:37;;;;;;;3.10;3.00;;;;;;;24.38;34.13;97140.50;5024080;28;20067;-67
2023/05/07 09:15:05;;;;;;;3.17;3.08;;;;;;;24.52;33.22;97168.31;5022472;28;20049;-66
2023/05/07 09:17:35;;;;;;;3.17;3.08;;;;;;;24.21;33.61;97192.91;5023447;28;20500;-68
2023/05/07 09:20:06;;;;;;;2.80;2.70;;;;;;;22.72;35.21;97177.38;5023879;28;20068;-67
2023/05/07 09:22:37;;;;;;;3.00;2.90;;;;;;;23.18;34.83;97176.81;5022566;28;20133;-70
2023/05/07 09:25:06;;;;;;;2.67;2.58;;;;;;;23.40;35.36;97183.41;5023798;28;20431;-68
2023/05/07 09:27:33;;;;;;;2.75;2.65;;;;;;;22.69;35.36;97172.63;5023798;28;20055;-67
2023/05/07 09:30:03;;;;;;;2.70;2.60;;;;;;;23.10;35.82;97209.34;5022941;28;20057;-68
2023/05/07 09:32:34;;;;;;;2.60;2.50;;;;;;;22.64;35.19;97080.75;5024431;28;20057;-69
2023/05/07 09:35:02;;;;;;;2.13;2.13;;;;;;;21.92;36.03;97167.84;5024058;28;20160;-68
2023/05/07 09:37:30;;;;;;;2.70;2.60;;;;;;;22.41;35.60;97158.03;5024247;28;20523;-68
2023/05/07 09:39:58;;;;;;;2.58;2.47;;;;;;;22.49;35.92;97108.59;5024138;28;20576;-67
2023/05/07 09:42:26;;;;;;;2.70;2.60;;;;;;;23.20;34.85;97120.63;5023622;28;20512;-67
2023/05/07 09:44:53;;;;;;;2.85;2.75;;;;;;;23.73;34.27;97148.00;5022639;28;20564;-67
2023/05/07 09:47:23;;;;;;;2.85;2.75;;;;;;;24.01;33.56;97149.94;5027034;28;20045;-68
2023/05/07 09:49:56;;;;;;;2.85;2.75;;;;;;;23.82;34.90;97117.00;5027384;28;20053;-68
2023/05/07 09:52:24;;;;;;;3.03;2.92;;;;;;;24.34;33.65;97145.53;5027351;28;20065;-70
2023/05/07 09:54:53;;;;;;;2.90;2.80;;;;;;;24.71;33.92;97146.63;5027626;28;20060;-68
2023/05/07 09:57:20;;;;;;;2.72;2.63;;;;;;;24.56;32.92;97146.34;5026721;28;20335;-69
2023/05/07 09:59:49;;;;;;;3.00;2.90;;;;;;;24.32;34.33;97139.53;5026969;28;20563;-69
2023/05/07 10:02:19;;;;;;;2.72;2.63;;;;;;;24.29;34.48;97137.63;5024996;28;20066;-69
2023/05/07 10:04:49;;;;;;;2.80;2.70;;;;;;;24.00;34.29;97124.88;5027158;28;20057;-67
2023/05/07 10:07:17;;;;;;;2.97;2.88;;;;;;;24.02;34.15;97126.03;5026740;28;20080;-69
2023/05/07 10:09:46;;;;;;;2.92;2.83;;;;;;;23.76;34.54;97087.66;5025415;28;20527;-69
2023/05/07 10:12:15;;;;;;;3.10;3.00;;;;;;;24.26;34.92;97132.88;5026788;28;20137;-68
2023/05/07 10:14:45;;;;;;;2.70;2.60;;;;;;;24.83;34.72;97126.72;5026755;28;20528;-68
2023/05/07 10:17:16;;;;;;;3.33;3.22;;;;;;;25.15;33.06;97126.28;5015930;28;20606;-67
2023/05/07 10:19:44;;;;;;;3.30;3.20;;;;;;;25.31;32.89;97126.06;5026883;28;20148;-69
2023/05/07 10:22:14;;;;;;;3.05;2.95;;;;;;;25.68;32.83;97129.06;5025455;28;20111;-69
2023/05/07 10:24:42;;;;;;;3.42;3.33;;;;;;;25.58;32.90;97067.84;5026348;28;20531;-69
2023/05/07 10:27:12;;;;;;;3.05;2.95;;;;;;;25.50;32.31;97103.47;5026167;28;20045;-68
2023/05/07 10:29:51;;;;;;;3.33;3.22;;;;;;;25.83;32.65;97119.47;5026214;28;20084;-69
2023/05/07 10:32:38;;;;;;;3.60;3.50;;;;;;;25.34;31.55;97115.06;5024770;28;20446;-67
2023/05/07 10:35:11;;;;;;;3.00;2.90;;;;;;;24.44;33.25;97110.34;5026437;28;20144;-68
2023/05/07 10:37:39;;;;;;;3.33;3.22;;;;;;;24.68;32.49;97111.50;5024646;28;20061;-67
2023/05/07 10:40:06;;;;;;;2.97;2.88;;;;;;;25.12;32.68;97107.38;5026003;28;20372;-67
2023/05/07 10:42:33;;;;;;;3.35;3.25;;;;;;;25.15;32.60;97024.19;5024971;28;20523;-69
2023/05/07 10:45:16;;;;;;;3.30;3.20;;;;;;;25.78;32.36;97099.44;5024628;28;20507;-68
2023/05/07 10:48:06;;;;;;;3.25;3.15;;;;;;;26.19;31.55;97094.00;5026010;28;20484;-69
2023/05/07 10:51:20;;;;;;;3.20;3.10;;;;;;;25.56;33.25;97098.75;5024607;28;20072;-67
2023/05/07 10:53:47;;;;;;;3.10;3.00;;;;;;;24.60;32.68;97016.66;5025790;28;20092;-68
2023/05/07 10:56:17;;;;;;;3.00;2.90;;;;;;;24.67;35.15;97094.97;5025377;28;20139;-68
2023/05/07 10:58:44;;;;;;;3.03;2.92;;;;;;;25.62;32.93;97096.88;5025477;28;20063;-69
2023/05/07 11:01:12;;;;;;;3.17;3.08;;;;;;;25.74;31.57;97093.13;5024281;28;20049;-68
2023/05/07 11:04:13;;;;;;;3.30;3.20;;;;;;;25.82;31.81;97089.53;5024386;28;20128;-69
2023/05/07 11:06:40;;;;;;;3.42;3.33;;;;;;;26.43;31.50;97077.16;5025729;28;20072;-68
2023/05/07 11:09:07;;;;;;;3.53;3.42;;;;;;;26.95;31.20;97079.63;5025669;28;20060;-69
2023/05/07 11:11:44;;;;;;;3.72;3.63;;;;;;;27.36;30.15;97076.00;5026066;28;20064;-66
2023/05/07 11:14:14;;;;;;;3.63;3.53;;;;;;;27.15;30.24;97014.44;5025799;28;20119;-68
2023/05/07 11:16:43;;;;;;;3.92;3.83;;;;;;;27.35;30.36;97080.13;5024040;28;20058;-69
2023/05/07 11:19:10;;;;;;;3.50;3.40;;;;;;;25.60;31.80;97076.69;5025505;28;20049;-66
2023/05/07 11:21:38;;;;;;;3.75;3.65;;;;;;;25.17;32.60;97055.72;5025922;28;20061;-68
2023/05/07 11:24:07;;;;;;;3.33;3.22;;;;;;;24.87;32.52;96994.16;5024182;28;20053;-68
2023/05/07 11:26:49;;;;;;;3.35;3.25;;;;;;;24.77;32.55;97083.22;5024015;28;20057;-66
2023/05/07 11:29:21;;;;;;;3.22;3.13;;;;;;;25.09;32.81;97060.09;5023913;28;20049;-67
2023/05/07 11:31:50;;;;;;;3.35;3.25;;;;;;;24.99;31.74;97007.44;5024304;28;20049;-67
2023/05/07 11:34:25;;;;;;;3.40;3.30;;;;;;;25.77;31.88;97075.16;5025417;28;20057;-66
2023/05/07 11:36:52;;;;;;;3.55;3.45;;;;;;;25.95;31.91;97064.63;5025491;28;20057;-68